createdAt,value
2023-04-14T07:01:04.036Z,61.91
2023-04-14T07:02:06.177Z,62.40
2023-04-14T07:03:07.790Z,61.35
2023-04-14T07:04:10.063Z,61.25
2023-04-14T07:05:11.608Z,60.16
2023-04-14T07:06:16.918Z,60.28
2023-04-14T07:07:18.427Z,59.55
2023-04-14T07:08:20.454Z,58.98
2023-04-14T07:09:22.773Z,59.19
2023-04-14T07:10:24.200Z,57.80
2023-04-14T07:11:25.657Z,57.41
2023-04-14T07:12:27.075Z,57.36
2023-04-14T07:13:29.435Z,56.10
2023-04-14T07:14:32.138Z,55.87
2023-04-14T07:15:33.503Z,55.41
2023-04-14T07:16:35.005Z,56.07
2023-04-14T07:17:36.687Z,56.18
2023-04-14T07:18:38.236Z,56.31
2023-04-14T07:19:39.637Z,56.40
2023-04-14T07:20:41.602Z,55.51
2023-04-14T07:21:44.785Z,54.45
2023-04-14T07:22:46.369Z,53.74
2023-04-14T07:23:47.732Z,53.64
2023-04-14T07:24:49.246Z,53.72
2023-04-14T07:25:55.641Z,52.56
2023-04-14T07:26:57.077Z,52.59
2023-04-14T07:28:03.627Z,52.56
2023-04-14T07:29:05.537Z,52.57
2023-04-14T07:30:07.948Z,51.76
2023-04-14T07:31:10.204Z,51.41
2023-04-14T07:32:13.584Z,51.79
2023-04-14T07:33:19.114Z,52.59
2023-04-14T07:34:20.649Z,52.39
2023-04-14T07:35:24.985Z,52.00
2023-04-14T07:36:26.447Z,50.67
2023-04-14T07:37:28.396Z,51.18
2023-04-14T07:38:29.960Z,51.04
2023-04-14T07:39:31.338Z,51.04
2023-04-14T07:40:32.718Z,50.70
2023-04-14T07:41:34.294Z,51.13
2023-04-14T07:42:36.703Z,51.52
2023-04-14T07:43:39.953Z,51.77
2023-04-14T07:44:41.486Z,51.12
2023-04-14T07:45:43.274Z,50.63
2023-04-14T07:46:44.716Z,51.53
2023-04-14T07:47:46.887Z,51.44
2023-04-14T07:48:48.394Z,50.67
2023-04-14T07:49:49.819Z,51.25
2023-04-14T07:50:51.251Z,50.66
2023-04-14T07:51:52.677Z,51.39
2023-04-14T07:52:54.204Z,50.86
2023-04-14T07:53:56.041Z,50.15
2023-04-14T07:54:57.445Z,48.44
2023-04-14T07:55:59.471Z,49.20
2023-04-14T07:57:01.321Z,49.58
2023-04-14T07:58:03.097Z,49.85
2023-04-14T07:59:04.491Z,49.51
2023-04-14T08:00:06.601Z,48.70
2023-04-14T08:01:08.044Z,48.96
2023-04-14T08:02:09.915Z,47.94
2023-04-14T08:03:11.640Z,48.75
2023-04-14T08:04:13.336Z,49.24
2023-04-14T08:05:15.036Z,49.58
2023-04-14T08:06:16.790Z,48.89
2023-04-14T08:07:18.242Z,49.35
2023-04-14T08:08:19.634Z,48.08
2023-04-14T08:09:21.081Z,46.79
2023-04-14T08:10:22.516Z,47.14
2023-04-14T08:11:24.288Z,47.02
2023-04-14T08:12:25.981Z,47.58
2023-04-14T08:13:28.068Z,48.22
2023-04-14T08:14:29.572Z,48.34
2023-04-14T08:15:32.095Z,47.88
2023-04-14T08:16:36.762Z,48.55
2023-04-14T08:17:38.472Z,48.91
2023-04-14T08:18:40.682Z,49.58
2023-04-14T08:19:42.172Z,49.21
2023-04-14T08:20:44.209Z,48.86
2023-04-14T08:21:45.923Z,48.81
2023-04-14T08:22:47.383Z,48.93
2023-04-14T08:23:48.932Z,48.97
2023-04-14T08:24:50.653Z,49.54
2023-04-14T08:25:52.029Z,49.36
2023-04-14T08:26:54.773Z,48.73
2023-04-14T08:27:56.174Z,48.95
2023-04-14T08:28:57.604Z,49.20
2023-04-14T08:29:59.223Z,48.96
2023-04-14T08:31:00.594Z,49.03
2023-04-14T08:32:01.999Z,48.77
2023-04-14T08:33:03.673Z,47.94
2023-04-14T08:34:05.333Z,47.56
2023-04-14T08:35:36.837Z,48.21
2023-04-14T08:36:28.528Z,48.22
2023-04-14T08:37:29.908Z,47.90
2023-04-14T08:38:31.453Z,47.63
2023-04-14T08:39:32.879Z,48.32
2023-04-14T08:40:42.900Z,48.96
2023-04-14T08:41:44.386Z,48.30
2023-04-14T08:42:46.280Z,48.87
2023-04-14T08:43:47.801Z,48.92
2023-04-14T08:44:49.280Z,49.26
2023-04-14T08:45:52.973Z,48.99
2023-04-14T08:46:55.844Z,49.12
2023-04-14T08:47:58.661Z,48.68
2023-04-14T08:49:05.703Z,48.27
2023-04-14T08:50:13.491Z,48.23
2023-04-14T08:51:32.207Z,48.78
2023-04-14T08:52:36.864Z,47.98
2023-04-14T08:53:45.746Z,48.96
2023-04-14T08:54:50.190Z,49.37
2023-04-14T08:55:52.618Z,48.86
2023-04-14T08:56:58.442Z,49.18
2023-04-14T08:58:02.419Z,48.58
2023-04-14T08:59:06.797Z,48.32
2023-04-14T09:00:09.689Z,48.23
2023-04-14T09:01:12.056Z,48.14
2023-04-14T09:02:14.334Z,47.93
2023-04-14T09:03:16.519Z,48.90
2023-04-14T09:04:20.274Z,49.36
2023-04-14T09:05:21.931Z,49.00
2023-04-14T09:06:24.066Z,48.64
2023-04-14T09:07:26.632Z,49.28
2023-04-14T09:08:33.832Z,48.27
2023-04-14T09:09:35.385Z,47.74
2023-04-14T09:10:38.136Z,47.22
2023-04-14T09:11:41.579Z,47.60
2023-04-14T09:12:43.880Z,47.42
2023-04-14T09:13:45.546Z,46.75
2023-04-14T09:14:48.356Z,46.49
2023-04-14T09:15:49.986Z,46.60
2023-04-14T09:16:53.828Z,47.16
2023-04-14T09:17:55.540Z,46.78
2023-04-14T09:19:00.057Z,46.42
2023-04-14T09:20:37.434Z,46.08
2023-04-14T09:21:52.524Z,44.64
2023-04-14T09:22:53.240Z,47.13
2023-04-14T09:23:54.938Z,45.84
2023-04-14T09:24:57.389Z,44.94
2023-04-14T09:25:58.919Z,45.73
2023-04-14T09:27:03.675Z,46.48
2023-04-14T09:28:05.054Z,46.09
2023-04-14T09:29:06.636Z,45.44
2023-04-14T09:30:09.656Z,45.90
2023-04-14T09:31:11.484Z,44.90
2023-04-14T09:32:12.989Z,45.13
2023-04-14T09:34:28.550Z,45.08
2023-04-14T09:35:45.624Z,44.96
2023-04-14T09:37:04.626Z,45.78
2023-04-14T09:38:06.855Z,45.86
2023-04-14T09:39:17.856Z,46.14
2023-04-14T09:40:29.144Z,45.75
2023-04-14T09:41:31.550Z,45.38
2023-04-14T09:42:40.977Z,45.19
2023-04-14T09:43:42.877Z,45.55
2023-04-14T09:44:58.047Z,45.31
2023-04-14T09:46:08.621Z,45.46
2023-04-14T09:47:10.532Z,45.13
2023-04-14T09:48:15.544Z,44.37
2023-04-14T09:49:17.012Z,43.30
2023-04-14T09:50:18.543Z,43.99
2023-04-14T09:51:29.886Z,44.13
2023-04-14T09:52:39.815Z,43.26
2023-04-14T09:53:41.306Z,43.36
2023-04-14T09:54:43.193Z,42.77
2023-04-14T09:55:45.435Z,44.74
2023-04-14T09:56:46.886Z,44.31
2023-04-14T09:57:48.381Z,43.41
2023-04-14T09:58:50.327Z,42.85
2023-04-14T09:59:51.785Z,43.11
2023-04-14T10:00:53.162Z,42.36
2023-04-14T10:01:58.481Z,42.52
2023-04-14T10:03:01.438Z,43.85
2023-04-14T10:04:03.282Z,44.85
2023-04-14T10:05:06.463Z,45.13
2023-04-14T10:06:10.586Z,45.17
2023-04-14T10:07:12.401Z,45.84
2023-04-14T10:08:13.922Z,46.05
2023-04-14T10:09:23.099Z,46.65
2023-04-14T10:10:24.421Z,46.86
2023-04-14T10:11:29.365Z,46.76
2023-04-14T10:12:31.284Z,46.78
2023-04-14T10:13:32.754Z,46.11
2023-04-14T10:14:34.473Z,45.00
2023-04-14T10:15:36.056Z,44.68
2023-04-14T10:16:37.442Z,44.41
2023-04-14T10:17:39.408Z,44.25
2023-04-14T10:18:40.923Z,44.57
2023-04-14T10:19:43.027Z,43.43
2023-04-14T10:20:44.591Z,43.30
2023-04-14T10:21:46.101Z,43.12
2023-04-14T10:22:48.067Z,41.69
2023-04-14T10:23:50.572Z,41.38
2023-04-14T10:24:52.468Z,43.12
2023-04-14T10:25:54.829Z,40.89
2023-04-14T10:26:57.439Z,39.85
2023-04-14T10:27:59.013Z,40.26
2023-04-14T10:29:02.834Z,39.93
2023-04-14T10:30:06.468Z,38.27
2023-04-14T10:31:11.903Z,39.36
2023-04-14T10:32:16.159Z,40.41
2023-04-14T10:33:17.635Z,41.00
2023-04-14T10:34:19.482Z,42.04
2023-04-14T10:35:21.435Z,43.28
2023-04-14T10:36:27.996Z,43.67
2023-04-14T10:37:29.623Z,43.60
2023-04-14T10:38:38.341Z,42.83
2023-04-14T10:39:41.024Z,43.50
2023-04-14T10:40:47.192Z,43.90
2023-04-14T10:41:52.993Z,42.39
2023-04-14T10:42:55.709Z,40.54
2023-04-14T10:43:57.083Z,39.06
2023-04-14T10:45:05.826Z,39.70
2023-04-14T10:46:10.225Z,39.11
2023-04-14T10:47:23.429Z,39.78
2023-04-14T10:48:33.652Z,39.19
2023-04-14T10:49:40.169Z,39.21
2023-04-14T10:50:48.837Z,39.89
2023-04-14T10:51:50.345Z,39.45
2023-04-14T10:52:55.913Z,38.02
2023-04-14T10:53:58.053Z,37.61
2023-04-14T10:55:09.499Z,36.50
2023-04-14T10:56:11.230Z,38.43
2023-04-14T10:57:14.583Z,38.29
2023-04-14T10:58:20.932Z,36.99
2023-04-14T10:59:22.361Z,36.99
2023-04-14T11:00:28.974Z,37.25
2023-04-14T11:01:32.665Z,37.72
2023-04-14T11:02:35.056Z,37.33
2023-04-14T11:03:44.984Z,37.78
2023-04-14T11:04:58.615Z,36.80
2023-04-14T11:06:00.049Z,36.10
2023-04-14T11:07:09.324Z,35.46
2023-04-14T11:08:35.369Z,34.47
2023-04-14T11:09:37.313Z,35.28
2023-04-14T11:10:38.818Z,35.45
2023-04-14T11:11:42.142Z,36.58
2023-04-14T11:12:45.025Z,36.80
2023-04-14T11:14:12.499Z,36.93
2023-04-14T11:15:16.194Z,37.29
2023-04-14T11:16:27.933Z,36.77
2023-04-14T11:17:34.071Z,36.81
2023-04-14T11:18:46.323Z,35.13
2023-04-14T11:19:48.175Z,33.48
2023-04-14T11:20:52.029Z,34.29
2023-04-14T11:21:54.058Z,34.88
2023-04-14T11:22:58.789Z,34.89
2023-04-14T11:24:00.829Z,33.79
2023-04-14T11:25:02.367Z,33.96
2023-04-14T11:26:08.354Z,33.27
2023-04-14T11:27:11.450Z,34.99
2023-04-14T11:28:13.070Z,35.46
2023-04-14T11:29:14.463Z,35.11
2023-04-14T11:30:20.394Z,35.32
2023-04-14T11:31:27.423Z,36.39
2023-04-14T11:32:29.302Z,35.66
2023-04-14T11:33:32.046Z,35.42
2023-04-14T11:34:34.373Z,34.33
2023-04-14T11:35:36.022Z,34.61
2023-04-14T11:36:39.221Z,33.83
2023-04-14T11:37:41.078Z,34.07
2023-04-14T11:38:43.196Z,34.92
2023-04-14T11:39:44.745Z,36.57
2023-04-14T11:40:49.834Z,34.51
2023-04-14T11:41:51.564Z,35.19
2023-04-14T11:42:58.003Z,35.96
2023-04-14T11:43:59.473Z,35.34
2023-04-14T11:45:03.803Z,34.29
2023-04-14T11:46:08.017Z,35.49
2023-04-14T11:47:09.387Z,35.84
2023-04-14T11:48:12.399Z,35.83
2023-04-14T11:49:13.856Z,34.92
2023-04-14T11:50:16.920Z,33.85
2023-04-14T11:51:18.881Z,34.35
2023-04-14T11:52:21.144Z,33.79
2023-04-14T11:53:22.925Z,34.48
2023-04-14T11:54:35.018Z,33.44
2023-04-14T11:55:37.065Z,33.15
2023-04-14T11:56:39.387Z,32.63
2023-04-14T11:57:47.111Z,31.80
2023-04-14T11:58:48.992Z,33.41
2023-04-14T11:59:50.707Z,32.82
2023-04-14T12:00:55.674Z,33.03
2023-04-14T12:01:58.395Z,33.91
2023-04-14T12:03:03.588Z,33.64
2023-04-14T12:04:06.438Z,31.44
2023-04-14T12:05:08.411Z,32.96
2023-04-14T12:06:10.291Z,33.98
2023-04-14T12:07:17.084Z,33.94
2023-04-14T12:08:18.531Z,32.39
2023-04-14T12:09:19.898Z,32.93
2023-04-14T12:10:22.055Z,33.46
2023-04-14T12:11:24.006Z,33.28
2023-04-14T12:12:28.809Z,34.05
2023-04-14T12:13:30.823Z,34.61
2023-04-14T12:14:32.390Z,34.06
2023-04-14T12:15:38.678Z,33.76
2023-04-14T12:16:40.787Z,32.08
2023-04-14T12:17:42.689Z,33.35
2023-04-14T12:18:44.576Z,33.46
2023-04-14T12:19:46.326Z,30.77
2023-04-14T12:20:53.148Z,32.90
2023-04-14T12:21:54.576Z,33.99
2023-04-14T12:23:04.317Z,33.38
2023-04-14T12:24:06.105Z,33.46
2023-04-14T12:25:13.522Z,33.65
2023-04-14T12:26:15.919Z,34.61
2023-04-14T12:27:22.412Z,34.73
2023-04-14T12:28:29.293Z,35.58
2023-04-14T12:29:33.140Z,37.23
2023-04-14T12:30:36.039Z,37.03
2023-04-14T12:31:43.106Z,37.56
2023-04-14T12:32:46.174Z,38.56
2023-04-14T12:33:49.976Z,38.99
2023-04-14T12:34:57.722Z,38.14
2023-04-14T12:36:03.277Z,37.34
2023-04-14T12:37:12.073Z,36.45
2023-04-14T12:38:14.774Z,36.74
2023-04-14T12:39:16.457Z,36.70
2023-04-14T12:40:18.408Z,36.40
2023-04-14T12:41:23.835Z,35.69
2023-04-14T12:42:27.233Z,35.71
2023-04-14T12:43:37.347Z,36.71
2023-04-14T12:44:38.951Z,35.96
2023-04-14T12:45:51.088Z,35.81
2023-04-14T12:46:53.709Z,36.58
2023-04-14T12:47:56.849Z,36.01
2023-04-14T12:48:58.634Z,36.06
2023-04-14T12:50:02.205Z,35.23
2023-04-14T12:51:12.626Z,34.98
2023-04-14T12:52:37.185Z,35.51
2023-04-14T12:53:39.357Z,34.51
2023-04-14T12:54:48.348Z,33.56
2023-04-14T12:56:08.303Z,34.41
2023-04-14T12:57:09.781Z,34.30
2023-04-14T12:58:11.214Z,34.14
2023-04-14T12:59:12.729Z,33.55
2023-04-14T13:00:14.542Z,34.45
2023-04-14T13:01:18.363Z,36.32
2023-04-14T13:02:19.931Z,34.70
2023-04-14T13:03:21.523Z,35.74
2023-04-14T13:04:23.237Z,35.73
2023-04-14T13:05:24.819Z,34.89
2023-04-14T13:06:26.167Z,34.60
2023-04-14T13:07:27.507Z,32.94
2023-04-14T13:08:29.498Z,33.58
2023-04-14T13:09:31.712Z,34.16
2023-04-14T13:10:33.217Z,34.44
2023-04-14T13:11:34.684Z,34.02
2023-04-14T13:12:36.072Z,33.65
2023-04-14T13:13:37.679Z,32.80
2023-04-14T13:14:39.186Z,33.15
2023-04-14T13:16:12.108Z,33.82
2023-04-14T13:17:02.983Z,32.12
2023-04-14T13:18:04.686Z,32.83
2023-04-14T13:19:06.293Z,34.33
2023-04-14T13:20:08.808Z,34.60
2023-04-14T13:21:10.621Z,35.02
2023-04-14T13:22:14.224Z,34.37
2023-04-14T13:23:15.853Z,35.09
2023-04-14T13:24:17.283Z,35.35
2023-04-14T13:25:18.620Z,35.58
2023-04-14T13:26:20.010Z,36.34
2023-04-14T13:27:21.456Z,36.57
2023-04-14T13:28:22.915Z,35.59
2023-04-14T13:29:24.300Z,34.79
2023-04-14T13:30:25.650Z,35.09
2023-04-14T13:31:27.082Z,34.47
2023-04-14T13:32:28.531Z,34.64
2023-04-14T13:33:29.965Z,34.90
2023-04-14T13:34:32.419Z,34.50
2023-04-14T13:35:33.834Z,33.79
2023-04-14T13:36:35.306Z,33.22
2023-04-14T13:37:36.671Z,32.98
2023-04-14T13:38:38.134Z,32.92
2023-04-14T13:39:39.833Z,32.40
2023-04-14T13:40:41.308Z,32.52
2023-04-14T13:41:43.482Z,32.26
2023-04-14T13:42:45.206Z,34.01
2023-04-14T13:43:46.798Z,34.73
2023-04-14T13:44:48.722Z,34.69
2023-04-14T13:45:50.286Z,35.54
2023-04-14T13:46:52.274Z,35.41
2023-04-14T13:47:54.074Z,35.68
2023-04-14T13:48:55.454Z,35.42
2023-04-14T13:49:56.822Z,35.70
2023-04-14T13:50:59.392Z,36.07
2023-04-14T13:52:00.732Z,36.90
2023-04-14T13:53:02.179Z,36.42
2023-04-14T13:54:03.765Z,36.99
2023-04-14T13:55:05.489Z,37.58
2023-04-14T13:56:07.066Z,36.43
2023-04-14T13:57:08.465Z,37.08
2023-04-14T13:58:09.901Z,36.70
2023-04-14T13:59:11.412Z,36.60
2023-04-14T14:00:13.513Z,36.60
2023-04-14T14:01:14.893Z,36.10
2023-04-14T14:02:16.530Z,35.42
2023-04-14T14:03:18.169Z,35.32
2023-04-14T14:04:19.781Z,35.10
2023-04-14T14:05:21.246Z,35.45
2023-04-14T14:06:22.647Z,34.78
2023-04-14T14:07:24.032Z,33.11
2023-04-14T14:08:25.373Z,34.12
2023-04-14T14:09:27.544Z,35.28
2023-04-14T14:10:29.141Z,36.41
2023-04-14T14:11:31.444Z,36.50
2023-04-14T14:12:32.837Z,36.33
2023-04-14T14:13:36.858Z,35.49
2023-04-14T14:14:38.403Z,36.22
2023-04-14T14:15:39.974Z,35.18
2023-04-14T14:16:41.476Z,35.60
2023-04-14T14:17:42.966Z,36.10
2023-04-14T14:18:46.386Z,36.31
2023-04-14T14:19:48.236Z,36.05
2023-04-14T14:20:49.631Z,36.55
2023-04-14T14:21:51.400Z,35.94
2023-04-14T14:22:52.817Z,35.41
2023-04-14T14:23:54.145Z,35.19
2023-04-14T14:25:10.961Z,34.54
2023-04-14T14:26:17.470Z,34.50
2023-04-14T14:27:18.821Z,34.46
2023-04-14T14:28:21.204Z,35.20
2023-04-14T14:29:22.930Z,33.70
2023-04-14T14:30:24.326Z,33.79
2023-04-14T14:31:25.994Z,35.49
2023-04-14T14:32:27.432Z,34.15
2023-04-14T14:33:28.963Z,33.83
2023-04-14T14:34:30.388Z,33.83
2023-04-14T14:35:31.892Z,33.48
2023-04-14T14:36:33.321Z,34.60
2023-04-14T14:37:34.756Z,34.09
2023-04-14T14:38:37.169Z,33.26
2023-04-14T14:39:38.606Z,33.77
2023-04-14T14:40:40.132Z,35.29
2023-04-14T14:41:42.077Z,34.27
2023-04-14T14:42:44.488Z,33.27
2023-04-14T14:43:45.885Z,34.13
2023-04-14T14:44:47.365Z,33.98
2023-04-14T14:45:48.777Z,33.84
2023-04-14T14:46:52.849Z,33.55
2023-04-14T14:47:54.405Z,33.88
2023-04-14T14:48:55.840Z,34.47
2023-04-14T14:50:02.677Z,33.59
2023-04-14T14:51:05.942Z,34.58
2023-04-14T14:52:07.426Z,32.45
2023-04-14T14:53:09.606Z,33.36
2023-04-14T14:54:11.068Z,32.95
2023-04-14T14:55:12.504Z,32.37
2023-04-14T14:56:13.904Z,33.47
2023-04-14T14:57:15.298Z,32.31
2023-04-14T14:58:16.629Z,32.77
2023-04-14T14:59:17.956Z,32.66
2023-04-14T15:00:19.545Z,32.23
2023-04-14T15:01:20.977Z,31.61
2023-04-14T15:02:22.751Z,32.02
2023-04-14T15:03:24.566Z,31.57
2023-04-14T15:04:26.407Z,31.85
2023-04-14T15:05:27.863Z,32.42
2023-04-14T15:06:29.250Z,32.22
2023-04-14T15:07:31.430Z,32.43
2023-04-14T15:08:33.081Z,32.47
2023-04-14T15:09:34.440Z,31.85
2023-04-14T15:10:35.900Z,32.81
2023-04-14T15:11:37.448Z,32.79
2023-04-14T15:12:38.817Z,32.15
2023-04-14T15:13:40.336Z,32.02
2023-04-14T15:14:42.216Z,32.87
2023-04-14T15:15:43.632Z,32.96
2023-04-14T15:16:45.261Z,32.68
2023-04-14T15:17:46.887Z,34.24
2023-04-14T15:18:48.299Z,34.40
2023-04-14T15:19:49.713Z,34.98
2023-04-14T15:20:53.751Z,34.65
2023-04-14T15:21:55.119Z,35.83
2023-04-14T15:22:56.503Z,35.56
2023-04-14T15:23:58.508Z,35.43
2023-04-14T15:24:59.871Z,35.58
2023-04-14T15:26:01.694Z,35.42
2023-04-14T15:27:03.427Z,36.49
2023-04-14T15:28:04.817Z,36.62
2023-04-14T15:29:06.339Z,36.49
2023-04-14T15:30:08.481Z,36.81
2023-04-14T15:31:09.872Z,36.51
2023-04-14T15:32:12.057Z,37.01
2023-04-14T15:33:13.433Z,36.39
2023-04-14T15:34:14.815Z,37.42
2023-04-14T15:35:16.745Z,37.47
2023-04-14T15:36:18.142Z,36.10
2023-04-14T15:37:19.628Z,35.17
2023-04-14T15:38:21.089Z,35.14
2023-04-14T15:39:22.656Z,34.27
2023-04-14T15:40:24.120Z,34.38
2023-04-14T15:41:25.985Z,34.26
2023-04-14T15:42:27.359Z,34.72
2023-04-14T15:43:29.056Z,35.92
2023-04-14T15:44:30.441Z,36.45
2023-04-14T15:45:31.992Z,35.55
2023-04-14T15:46:33.410Z,35.65
2023-04-14T15:47:34.873Z,35.69
2023-04-14T15:48:36.267Z,35.48
2023-04-14T15:49:37.593Z,35.78
2023-04-14T15:50:44.664Z,35.37
2023-04-14T15:51:46.527Z,34.41
2023-04-14T15:52:49.470Z,34.03
2023-04-14T15:53:51.683Z,33.59
2023-04-14T15:54:53.072Z,33.01
2023-04-14T15:55:54.537Z,32.74
2023-04-14T15:56:56.094Z,32.69
2023-04-14T15:57:57.589Z,33.96
2023-04-14T15:58:58.952Z,34.26
2023-04-14T16:00:01.931Z,34.99
2023-04-14T16:01:07.283Z,35.29
2023-04-14T16:02:08.784Z,35.81
2023-04-14T16:03:11.900Z,36.22
2023-04-14T16:04:13.423Z,36.58
2023-04-14T16:05:14.969Z,36.87
2023-04-14T16:06:16.905Z,37.57
2023-04-14T16:07:18.297Z,37.88
2023-04-14T16:08:19.836Z,37.94
2023-04-14T16:09:21.312Z,38.48
2023-04-14T16:10:23.217Z,38.80
2023-04-14T16:11:25.140Z,39.50
2023-04-14T16:12:27.510Z,39.20
2023-04-14T16:13:29.656Z,39.81
2023-04-14T16:14:32.315Z,40.20
2023-04-14T16:15:34.997Z,40.96
2023-04-14T16:16:36.796Z,40.61
2023-04-14T16:17:38.240Z,40.74
2023-04-14T16:18:39.580Z,41.10
2023-04-14T16:19:41.085Z,41.01
2023-04-14T16:20:42.591Z,41.40
2023-04-14T16:21:44.010Z,42.19
2023-04-14T16:22:46.361Z,41.31
2023-04-14T16:23:47.719Z,40.65
2023-04-14T16:24:49.116Z,39.70
2023-04-14T16:25:50.539Z,38.42
2023-04-14T16:26:51.863Z,38.42
2023-04-14T16:27:53.507Z,38.98
2023-04-14T16:28:54.871Z,38.95
2023-04-14T16:29:56.595Z,38.96
2023-04-14T16:31:02.772Z,39.63
2023-04-14T16:32:04.279Z,39.89
2023-04-14T16:33:05.920Z,39.67
2023-04-14T16:34:07.820Z,38.87
2023-04-14T16:35:09.509Z,38.27
2023-04-14T16:36:11.213Z,38.20
2023-04-14T16:37:12.968Z,37.73
2023-04-14T16:38:14.349Z,37.80
2023-04-14T16:39:15.732Z,37.28
2023-04-14T16:40:17.404Z,37.44
2023-04-14T16:41:18.842Z,37.19
2023-04-14T16:42:23.960Z,37.50
2023-04-14T16:43:28.624Z,37.39
2023-04-14T16:44:30.542Z,37.05
2023-04-14T16:45:32.128Z,37.04
2023-04-14T16:46:33.650Z,37.44
2023-04-14T16:47:35.806Z,37.84
2023-04-14T16:48:37.248Z,37.99
2023-04-14T16:49:38.639Z,38.80
2023-04-14T16:50:40.538Z,38.74
2023-04-14T16:51:42.377Z,39.59
2023-04-14T16:52:43.865Z,39.68
2023-04-14T16:53:45.290Z,39.70
2023-04-14T16:54:46.673Z,39.70
2023-04-14T16:55:48.124Z,40.14
2023-04-14T16:56:49.463Z,39.71
2023-04-14T16:57:50.944Z,40.22
2023-04-14T16:58:52.405Z,40.20
2023-04-14T16:59:53.853Z,40.27
2023-04-14T17:00:55.698Z,40.73
2023-04-14T17:01:57.672Z,40.82
2023-04-14T17:02:59.368Z,40.97
2023-04-14T17:04:01.103Z,41.04
2023-04-14T17:05:03.473Z,41.16
2023-04-14T17:06:05.262Z,41.24
2023-04-14T17:07:07.047Z,41.08
2023-04-14T17:08:08.407Z,41.87
2023-04-14T17:09:09.824Z,42.11
2023-04-14T17:10:11.839Z,42.41
